createdAt,value
2023-07-03T00:00:25.020Z,94966.00
2023-07-03T00:01:25.070Z,94968.00
2023-07-03T00:02:25.151Z,94966.00
2023-07-03T00:03:25.107Z,94970.00
2023-07-03T00:04:25.317Z,94966.00
2023-07-03T00:05:25.310Z,94966.00
2023-07-03T00:06:25.219Z,94966.00
2023-07-03T00:07:25.245Z,94964.00
2023-07-03T00:08:25.287Z,94966.00
2023-07-03T00:09:25.327Z,94966.00
2023-07-03T00:10:25.366Z,94966.00
2023-07-03T00:11:25.409Z,94966.00
2023-07-03T00:12:25.499Z,94964.00
2023-07-03T00:13:25.492Z,94964.00
2023-07-03T00:14:25.549Z,94960.00
2023-07-03T00:15:25.580Z,94960.00
2023-07-03T00:16:25.631Z,94960.00
2023-07-03T00:17:25.661Z,94960.00
2023-07-03T00:18:25.694Z,94960.00
2023-07-03T00:19:25.732Z,94962.00
2023-07-03T00:20:25.774Z,94960.00
2023-07-03T00:21:25.815Z,94962.00
2023-07-03T00:22:25.847Z,94962.00
2023-07-03T00:23:25.888Z,94960.00
2023-07-03T00:24:25.928Z,94959.00
2023-07-03T00:25:25.966Z,94959.00
2023-07-03T00:26:25.997Z,94959.00
2023-07-03T00:27:26.043Z,94960.00
2023-07-03T00:28:26.103Z,94959.00
2023-07-03T00:29:26.134Z,94960.00
2023-07-03T00:30:26.160Z,94960.00
2023-07-03T00:31:26.248Z,94962.00
2023-07-03T00:32:26.268Z,94959.00
2023-07-03T00:33:26.281Z,94960.00
2023-07-03T00:34:26.318Z,94959.00
2023-07-03T00:35:26.356Z,94960.00
2023-07-03T00:36:26.389Z,94959.00
2023-07-03T00:37:26.428Z,94959.00
2023-07-03T00:38:26.483Z,94957.00
2023-07-03T00:39:26.523Z,94959.00
2023-07-03T00:40:26.563Z,94957.00
2023-07-03T00:41:26.601Z,94959.00
2023-07-03T00:42:26.637Z,94955.00
2023-07-03T00:43:26.692Z,94955.00
2023-07-03T00:44:26.761Z,94957.00
2023-07-03T00:45:26.771Z,94959.00
2023-07-03T00:46:26.846Z,94959.00
2023-07-03T00:47:26.866Z,94959.00
2023-07-03T00:48:26.891Z,94959.00
2023-07-03T00:49:26.936Z,94959.00
2023-07-03T00:50:26.969Z,94959.00
2023-07-03T00:51:27.009Z,94959.00
2023-07-03T00:52:27.053Z,94957.00
2023-07-03T00:53:27.099Z,94957.00
2023-07-03T00:54:27.125Z,94953.00
2023-07-03T00:55:27.164Z,94953.00
2023-07-03T00:56:27.216Z,94953.00
2023-07-03T00:57:27.253Z,94953.00
2023-07-03T00:58:27.291Z,94955.00
2023-07-03T00:59:27.320Z,94957.00
2023-07-03T01:00:27.384Z,94959.00
2023-07-03T01:01:27.416Z,94960.00
2023-07-03T01:02:27.480Z,94960.00
2023-07-03T01:03:27.481Z,94962.00
2023-07-03T01:04:27.641Z,94962.00
2023-07-03T01:05:27.857Z,94964.00
2023-07-03T01:06:27.604Z,94964.00
2023-07-03T01:07:27.647Z,94964.00
2023-07-03T01:08:27.700Z,94964.00
2023-07-03T01:09:27.729Z,94964.00
2023-07-03T01:10:27.782Z,94960.00
2023-07-03T01:11:27.820Z,94962.00
2023-07-03T01:12:27.859Z,94962.00
2023-07-03T01:13:27.902Z,94960.00
2023-07-03T01:14:27.925Z,94962.00
2023-07-03T01:15:27.993Z,94960.00
2023-07-03T01:16:28.088Z,94962.00
2023-07-03T01:17:28.040Z,94964.00
2023-07-03T01:18:28.059Z,94964.00
2023-07-03T01:19:28.090Z,94964.00
2023-07-03T01:20:28.136Z,94962.00
2023-07-03T01:21:28.172Z,94962.00
2023-07-03T01:22:28.206Z,94964.00
2023-07-03T01:23:28.236Z,94966.00
2023-07-03T01:24:28.272Z,94964.00
2023-07-03T01:25:28.299Z,94964.00
2023-07-03T01:26:28.309Z,94964.00
2023-07-03T01:27:28.403Z,94960.00
2023-07-03T01:28:28.350Z,94959.00
2023-07-03T01:29:28.408Z,94959.00
2023-07-03T01:30:28.424Z,94955.00
2023-07-03T01:31:28.497Z,94960.00
2023-07-03T01:32:28.501Z,94957.00
2023-07-03T01:33:28.486Z,94959.00
2023-07-03T01:34:28.528Z,94960.00
2023-07-03T01:35:28.582Z,94959.00
2023-07-03T01:36:28.631Z,94960.00
2023-07-03T01:37:28.691Z,94959.00
2023-07-03T01:38:28.711Z,94959.00
2023-07-03T01:39:28.743Z,94960.00
2023-07-03T01:40:28.779Z,94960.00
2023-07-03T01:41:28.843Z,94959.00
2023-07-03T01:42:28.874Z,94964.00
2023-07-03T01:43:28.905Z,94962.00
2023-07-03T01:44:28.915Z,94962.00
2023-07-03T01:45:28.954Z,94964.00
2023-07-03T01:46:29.134Z,94964.00
2023-07-03T01:47:29.100Z,94966.00
2023-07-03T01:48:29.103Z,94962.00
2023-07-03T01:49:29.106Z,94962.00
2023-07-03T01:50:29.127Z,94962.00
2023-07-03T01:51:29.169Z,94964.00
2023-07-03T01:52:29.209Z,94964.00
2023-07-03T01:53:29.243Z,94962.00
2023-07-03T01:54:29.277Z,94962.00
2023-07-03T01:55:29.303Z,94962.00
2023-07-03T01:56:29.318Z,94964.00
2023-07-03T01:57:29.328Z,94964.00
2023-07-03T01:58:29.373Z,94964.00
2023-07-03T01:59:29.347Z,94964.00
2023-07-03T02:00:29.378Z,94966.00
2023-07-03T02:01:29.440Z,94964.00
2023-07-03T02:02:29.466Z,94966.00
2023-07-03T02:03:29.445Z,94966.00
2023-07-03T02:04:29.477Z,94966.00
2023-07-03T02:05:29.401Z,94968.00
2023-07-03T02:06:29.433Z,94968.00
2023-07-03T02:07:29.429Z,94966.00
2023-07-03T02:08:29.427Z,94964.00
2023-07-03T02:09:29.453Z,94966.00
2023-07-03T02:10:29.461Z,94964.00
2023-07-03T02:11:29.488Z,94962.00
2023-07-03T02:12:29.514Z,94964.00
2023-07-03T02:13:29.582Z,94964.00
2023-07-03T02:14:29.550Z,94966.00
2023-07-03T02:15:29.569Z,94968.00
2023-07-03T02:16:29.618Z,94968.00
2023-07-03T02:17:29.701Z,94966.00
2023-07-03T02:18:29.680Z,94966.00
2023-07-03T02:19:29.779Z,94964.00
2023-07-03T02:20:29.773Z,94964.00
2023-07-03T02:21:29.795Z,94964.00
2023-07-03T02:22:29.833Z,94962.00
2023-07-03T02:23:29.863Z,94962.00
2023-07-03T02:24:29.908Z,94962.00
2023-07-03T02:25:29.941Z,94959.00
2023-07-03T02:26:29.982Z,94959.00
2023-07-03T02:27:30.022Z,94955.00
2023-07-03T02:28:30.066Z,94957.00
2023-07-03T02:29:30.098Z,94955.00
2023-07-03T02:30:30.140Z,94959.00
2023-07-03T02:31:30.177Z,94957.00
2023-07-03T02:32:30.231Z,94957.00
2023-07-03T02:33:30.205Z,94959.00
2023-07-03T02:34:30.200Z,94959.00
2023-07-03T02:35:30.215Z,94960.00
2023-07-03T02:36:30.260Z,94960.00
2023-07-03T02:37:30.190Z,94960.00
2023-07-03T02:38:30.195Z,94962.00
2023-07-03T02:39:30.206Z,94962.00
2023-07-03T02:40:30.210Z,94960.00
2023-07-03T02:41:30.236Z,94953.00
2023-07-03T02:42:30.246Z,94955.00
2023-07-03T02:43:30.263Z,94955.00
2023-07-03T02:44:30.284Z,94953.00
2023-07-03T02:45:30.317Z,94955.00
2023-07-03T02:46:30.343Z,94955.00
2023-07-03T02:47:30.543Z,94953.00
2023-07-03T02:48:30.407Z,94953.00
2023-07-03T02:49:30.467Z,94953.00
2023-07-03T02:50:30.465Z,94953.00
2023-07-03T02:51:30.506Z,94951.00
2023-07-03T02:52:30.561Z,94955.00
2023-07-03T02:53:30.582Z,94951.00
2023-07-03T02:54:30.607Z,94951.00
2023-07-03T02:55:30.638Z,94951.00
2023-07-03T02:56:30.688Z,94951.00
2023-07-03T02:57:30.725Z,94951.00
2023-07-03T02:58:30.754Z,94953.00
2023-07-03T02:59:30.838Z,94953.00
2023-07-03T03:00:30.863Z,94955.00
2023-07-03T03:01:30.864Z,94953.00
2023-07-03T03:02:31.007Z,94953.00
2023-07-03T03:03:30.989Z,94953.00
2023-07-03T03:04:31.020Z,94953.00
2023-07-03T03:05:31.010Z,94951.00
2023-07-03T03:06:31.056Z,94951.00
2023-07-03T03:07:31.081Z,94951.00
2023-07-03T03:08:31.129Z,94951.00
2023-07-03T03:09:31.124Z,94949.00
2023-07-03T03:10:31.143Z,94949.00
2023-07-03T03:11:31.162Z,94949.00
2023-07-03T03:12:31.174Z,94951.00
2023-07-03T03:13:31.201Z,94951.00
2023-07-03T03:14:31.234Z,94951.00
2023-07-03T03:15:31.263Z,94951.00
2023-07-03T03:16:31.330Z,94949.00
2023-07-03T03:17:31.334Z,94947.00
2023-07-03T03:18:31.335Z,94951.00
2023-07-03T03:19:31.385Z,94953.00
2023-07-03T03:20:31.391Z,94951.00
2023-07-03T03:21:31.455Z,94953.00
2023-07-03T03:22:31.464Z,94953.00
2023-07-03T03:23:31.497Z,94953.00
2023-07-03T03:24:31.548Z,94955.00
2023-07-03T03:25:31.564Z,94957.00
2023-07-03T03:26:31.612Z,94955.00
2023-07-03T03:27:31.602Z,94955.00
2023-07-03T03:28:31.654Z,94957.00
2023-07-03T03:29:31.668Z,94957.00
2023-07-03T03:30:31.722Z,94957.00
2023-07-03T03:31:31.739Z,94959.00
2023-07-03T03:32:31.827Z,94957.00
2023-07-03T03:33:31.801Z,94959.00
2023-07-03T03:34:31.825Z,94960.00
2023-07-03T03:35:32.570Z,94960.00
2023-07-03T03:36:31.889Z,94962.00
2023-07-03T03:37:31.924Z,94962.00
2023-07-03T03:38:31.950Z,94962.00
2023-07-03T03:39:31.988Z,94964.00
2023-07-03T03:40:32.048Z,94962.00
2023-07-03T03:41:32.059Z,94962.00
2023-07-03T03:42:32.093Z,94962.00
2023-07-03T03:43:32.139Z,94960.00
2023-07-03T03:44:32.182Z,94960.00
2023-07-03T03:45:32.221Z,94960.00
2023-07-03T03:46:32.264Z,94960.00
2023-07-03T03:47:32.325Z,94960.00
2023-07-03T03:48:32.473Z,94959.00
2023-07-03T03:49:32.391Z,94960.00
2023-07-03T03:50:32.397Z,94960.00
2023-07-03T03:51:32.434Z,94960.00
2023-07-03T03:52:32.486Z,94964.00
2023-07-03T03:53:32.517Z,94964.00
2023-07-03T03:54:32.546Z,94962.00
2023-07-03T03:55:32.576Z,94964.00
2023-07-03T03:56:32.630Z,94964.00
2023-07-03T03:57:32.644Z,94964.00
2023-07-03T03:58:32.688Z,94964.00
2023-07-03T03:59:32.723Z,94964.00
2023-07-03T04:00:32.763Z,94964.00
2023-07-03T04:01:32.831Z,94964.00
2023-07-03T04:02:32.919Z,94964.00
2023-07-03T04:03:32.899Z,94964.00
2023-07-03T04:04:33.017Z,94964.00
2023-07-03T04:05:32.948Z,94964.00
2023-07-03T04:06:32.999Z,94964.00
2023-07-03T04:07:33.031Z,94964.00
2023-07-03T04:08:33.069Z,94964.00
2023-07-03T04:09:33.115Z,94962.00
2023-07-03T04:10:33.155Z,94964.00
2023-07-03T04:11:33.224Z,94964.00
2023-07-03T04:12:33.285Z,94966.00
2023-07-03T04:13:33.289Z,94968.00
2023-07-03T04:14:33.337Z,94968.00
2023-07-03T04:15:33.369Z,94968.00
2023-07-03T04:16:33.446Z,94970.00
2023-07-03T04:17:33.470Z,94970.00
2023-07-03T04:18:33.495Z,94970.00
2023-07-03T04:19:33.519Z,94972.00
2023-07-03T04:20:33.558Z,94972.00
2023-07-03T04:21:33.618Z,94972.00
2023-07-03T04:22:33.635Z,94970.00
2023-07-03T04:23:33.663Z,94972.00
2023-07-03T04:24:33.708Z,94972.00
2023-07-03T04:25:33.755Z,94972.00
2023-07-03T04:26:33.832Z,94974.00
2023-07-03T04:27:33.834Z,94978.00
2023-07-03T04:28:33.900Z,94978.00
2023-07-03T04:29:33.893Z,94980.00
2023-07-03T04:30:33.900Z,94980.00
2023-07-03T04:31:33.944Z,94980.00
2023-07-03T04:32:35.404Z,94982.00
2023-07-03T04:33:33.874Z,94982.00
2023-07-03T04:34:33.839Z,94984.00
2023-07-03T04:35:33.867Z,94984.00
2023-07-03T04:36:33.771Z,94984.00
2023-07-03T04:37:33.738Z,94984.00
2023-07-03T04:38:33.706Z,94986.00
2023-07-03T04:39:33.734Z,94988.00
2023-07-03T04:40:33.635Z,94990.00
2023-07-03T04:41:33.601Z,94990.00
2023-07-03T04:42:33.950Z,94990.00
2023-07-03T04:43:33.541Z,94990.00
2023-07-03T04:44:33.558Z,94990.00
2023-07-03T04:45:33.467Z,94992.00
2023-07-03T04:46:33.466Z,94988.00
2023-07-03T04:47:33.434Z,94988.00
2023-07-03T04:48:33.368Z,94988.00
2023-07-03T04:49:33.329Z,94988.00
2023-07-03T04:50:33.290Z,94988.00
2023-07-03T04:51:33.261Z,94986.00
2023-07-03T04:52:33.230Z,94986.00
2023-07-03T04:53:33.192Z,94984.00
2023-07-03T04:54:33.170Z,94984.00
2023-07-03T04:55:33.135Z,94986.00
2023-07-03T04:56:33.096Z,94984.00
2023-07-03T04:57:33.066Z,94984.00
2023-07-03T04:58:33.034Z,94984.00
2023-07-03T04:59:33.000Z,94984.00
2023-07-03T05:00:33.042Z,94984.00
2023-07-03T05:01:33.070Z,94984.00
2023-07-03T05:02:33.155Z,94982.00
2023-07-03T05:03:33.218Z,94984.00
2023-07-03T05:04:33.266Z,94984.00
2023-07-03T05:05:33.201Z,94984.00
2023-07-03T05:06:33.239Z,94988.00
2023-07-03T05:07:33.269Z,94984.00
2023-07-03T05:08:33.307Z,94990.00
2023-07-03T05:09:33.373Z,94988.00
2023-07-03T05:10:33.356Z,94986.00
2023-07-03T05:11:33.382Z,94986.00
2023-07-03T05:12:33.410Z,94984.00
2023-07-03T05:13:33.433Z,94984.00
2023-07-03T05:14:33.496Z,94986.00
2023-07-03T05:15:33.521Z,94988.00
2023-07-03T05:16:33.579Z,94988.00
2023-07-03T05:17:33.514Z,94988.00
2023-07-03T05:18:33.522Z,94986.00
2023-07-03T05:19:33.525Z,94990.00
2023-07-03T05:20:33.509Z,94992.00
2023-07-03T05:21:33.541Z,94992.00
2023-07-03T05:22:33.496Z,94996.00
2023-07-03T05:23:33.457Z,94990.00
2023-07-03T05:24:33.423Z,94990.00
2023-07-03T05:25:33.422Z,94994.00
2023-07-03T05:26:33.381Z,94992.00
2023-07-03T05:27:33.335Z,94992.00
2023-07-03T05:28:33.321Z,94990.00
2023-07-03T05:29:33.287Z,94992.00
2023-07-03T05:30:33.257Z,94996.00
2023-07-03T05:31:33.269Z,94994.00
2023-07-03T05:32:33.271Z,94996.00
2023-07-03T05:33:33.179Z,94996.00
2023-07-03T05:34:33.147Z,94996.00
2023-07-03T05:35:33.149Z,94998.00
2023-07-03T05:36:33.114Z,94998.00
2023-07-03T05:37:33.087Z,95002.00
2023-07-03T05:38:33.066Z,95000.00
2023-07-03T05:39:33.077Z,95002.00
2023-07-03T05:40:33.036Z,95004.00
2023-07-03T05:41:33.027Z,95006.00
2023-07-03T05:42:33.617Z,95000.00
2023-07-03T05:43:32.991Z,95006.00
2023-07-03T05:44:32.963Z,95007.00
2023-07-03T05:45:32.961Z,95004.00
2023-07-03T05:46:32.962Z,95006.00
2023-07-03T05:47:33.042Z,95006.00
2023-07-03T05:48:32.918Z,95007.00
2023-07-03T05:49:32.884Z,95006.00
2023-07-03T05:50:32.874Z,95006.00
2023-07-03T05:51:32.846Z,95007.00
2023-07-03T05:52:32.828Z,95009.00
2023-07-03T05:53:32.838Z,95007.00
2023-07-03T05:54:32.793Z,95009.00
2023-07-03T05:55:32.770Z,95007.00
2023-07-03T05:56:32.749Z,95009.00
2023-07-03T05:57:32.722Z,95009.00
2023-07-03T05:58:32.718Z,95011.00
2023-07-03T05:59:32.697Z,95009.00
2023-07-03T06:00:32.688Z,95011.00
2023-07-03T06:01:32.771Z,95013.00
2023-07-03T06:02:32.677Z,95009.00
2023-07-03T06:03:32.682Z,95009.00
2023-07-03T06:04:32.664Z,95007.00
2023-07-03T06:05:32.616Z,95011.00
2023-07-03T06:06:32.605Z,95007.00
2023-07-03T06:07:32.594Z,95009.00
2023-07-03T06:08:32.576Z,95009.00
2023-07-03T06:10:31.558Z,95011.00
2023-07-03T06:11:32.542Z,95015.00
2023-07-03T06:12:32.528Z,95013.00
2023-07-03T06:13:32.511Z,95009.00
2023-07-03T06:14:32.504Z,95013.00
2023-07-03T06:15:32.487Z,95015.00
2023-07-03T06:16:32.508Z,95013.00
2023-07-03T06:17:32.501Z,95009.00
2023-07-03T06:18:32.454Z,95011.00
2023-07-03T06:19:32.431Z,95011.00
2023-07-03T06:20:32.456Z,95009.00
2023-07-03T06:21:32.400Z,95009.00
2023-07-03T06:22:32.392Z,95007.00
2023-07-03T06:23:32.373Z,95007.00
2023-07-03T06:24:32.355Z,95007.00
2023-07-03T06:25:32.341Z,95009.00
2023-07-03T06:26:32.321Z,95011.00
2023-07-03T06:27:32.324Z,95011.00
2023-07-03T06:28:32.279Z,95009.00
2023-07-03T06:29:32.262Z,95009.00
2023-07-03T06:30:32.254Z,95007.00
2023-07-03T06:31:32.299Z,95007.00
2023-07-03T06:32:32.270Z,95006.00
2023-07-03T06:33:32.221Z,95006.00
2023-07-03T06:34:32.207Z,95007.00
2023-07-03T06:35:32.205Z,95006.00
2023-07-03T06:36:32.882Z,95004.00
2023-07-03T06:37:32.167Z,95006.00
2023-07-03T06:38:32.155Z,95007.00
2023-07-03T06:39:32.140Z,95004.00
2023-07-03T06:40:32.127Z,95004.00
2023-07-03T06:41:32.109Z,95004.00
2023-07-03T06:42:32.103Z,95004.00
2023-07-03T06:43:32.080Z,95004.00
2023-07-03T06:44:32.077Z,95006.00
2023-07-03T06:45:32.055Z,95004.00
2023-07-03T06:46:32.231Z,95004.00
2023-07-03T06:47:32.092Z,95004.00
2023-07-03T06:48:32.012Z,95004.00
2023-07-03T06:49:31.999Z,95000.00
2023-07-03T06:50:31.975Z,95002.00
2023-07-03T06:51:31.967Z,95004.00
2023-07-03T06:52:32.053Z,95002.00
2023-07-03T06:53:31.943Z,95002.00
2023-07-03T06:54:32.149Z,95000.00
2023-07-03T06:55:31.904Z,95000.00
2023-07-03T06:56:31.895Z,95000.00
2023-07-03T06:57:31.890Z,95000.00
2023-07-03T06:58:31.856Z,94998.00
2023-07-03T06:59:31.857Z,95000.00
2023-07-03T07:00:31.841Z,94998.00
2023-07-03T07:01:31.843Z,94998.00
2023-07-03T07:02:31.852Z,94996.00
2023-07-03T07:03:31.883Z,95000.00
2023-07-03T07:04:31.897Z,94996.00
2023-07-03T07:05:32.186Z,95000.00
2023-07-03T07:06:31.875Z,95000.00
2023-07-03T07:07:31.746Z,95002.00
2023-07-03T07:08:31.927Z,95004.00
2023-07-03T07:09:31.715Z,95002.00
2023-07-03T07:10:31.701Z,95004.00
2023-07-03T07:11:31.759Z,95004.00
2023-07-03T07:12:31.679Z,95002.00
2023-07-03T07:13:31.756Z,95002.00
2023-07-03T07:14:31.652Z,95002.00
2023-07-03T07:15:31.640Z,95002.00
2023-07-03T07:16:31.662Z,95002.00
2023-07-03T07:17:49.858Z,95002.00
2023-07-03T07:18:31.640Z,95002.00
2023-07-03T07:19:31.552Z,95002.00
2023-07-03T07:20:31.524Z,95000.00
2023-07-03T07:21:31.489Z,95000.00
2023-07-03T07:22:31.655Z,94998.00
2023-07-03T07:23:31.435Z,94998.00
2023-07-03T07:24:31.543Z,94998.00
2023-07-03T07:25:31.374Z,94998.00
2023-07-03T07:26:31.656Z,94998.00
2023-07-03T07:27:31.324Z,94996.00
2023-07-03T07:28:31.296Z,94996.00
2023-07-03T07:29:31.272Z,94998.00
2023-07-03T07:30:31.302Z,94998.00
2023-07-03T07:31:31.219Z,94996.00
2023-07-03T07:32:31.326Z,94994.00
2023-07-03T07:33:31.174Z,94996.00
2023-07-03T07:34:31.136Z,94994.00
2023-07-03T07:35:31.106Z,94994.00
2023-07-03T07:36:31.075Z,94992.00
2023-07-03T07:37:31.063Z,94994.00
2023-07-03T07:38:31.026Z,94994.00
2023-07-03T07:39:30.990Z,94994.00
2023-07-03T07:40:31.150Z,94994.00
2023-07-03T07:41:30.951Z,94992.00
2023-07-03T07:42:30.912Z,94994.00
2023-07-03T07:43:30.900Z,94998.00
2023-07-03T07:44:30.861Z,94998.00
2023-07-03T07:45:30.821Z,94996.00
2023-07-03T07:46:30.971Z,94996.00
2023-07-03T07:47:30.787Z,94996.00
2023-07-03T07:48:33.002Z,94996.00
2023-07-03T07:49:30.696Z,94998.00
2023-07-03T07:50:30.663Z,94996.00
2023-07-03T07:51:30.632Z,94996.00
2023-07-03T07:52:30.603Z,94998.00
2023-07-03T07:53:30.575Z,94998.00
2023-07-03T07:54:30.554Z,94998.00
2023-07-03T07:55:30.516Z,95002.00
2023-07-03T07:56:33.138Z,94998.00
2023-07-03T07:57:30.507Z,94994.00
2023-07-03T07:58:30.412Z,94994.00
2023-07-03T07:59:30.375Z,94994.00
2023-07-03T08:00:30.345Z,94996.00
2023-07-03T08:01:30.833Z,95000.00
2023-07-03T08:02:30.513Z,95000.00
2023-07-03T08:03:30.399Z,95000.00
2023-07-03T08:04:30.330Z,95000.00
2023-07-03T08:05:30.243Z,94998.00
2023-07-03T08:06:30.169Z,95002.00
2023-07-03T08:07:30.131Z,94998.00
2023-07-03T08:08:30.129Z,94998.00
2023-07-03T08:09:30.086Z,94998.00
2023-07-03T08:10:30.076Z,94998.00
2023-07-03T08:11:30.171Z,95000.00
2023-07-03T08:12:30.079Z,95000.00
2023-07-03T08:13:29.947Z,94998.00
2023-07-03T08:14:29.919Z,94998.00
2023-07-03T08:15:29.890Z,95000.00
2023-07-03T08:16:29.997Z,94998.00
2023-07-03T08:17:29.856Z,94998.00
2023-07-03T08:18:29.807Z,95002.00
2023-07-03T08:19:29.827Z,95004.00
2023-07-03T08:20:29.755Z,95006.00
2023-07-03T08:21:29.728Z,95006.00
2023-07-03T08:22:29.697Z,95004.00
2023-07-03T08:23:29.843Z,95004.00
2023-07-03T08:24:29.639Z,95004.00
2023-07-03T08:25:29.605Z,95004.00
2023-07-03T08:26:29.679Z,95004.00
2023-07-03T08:27:29.552Z,95006.00
2023-07-03T08:28:29.761Z,95006.00
2023-07-03T08:29:29.471Z,95006.00
2023-07-03T08:30:29.434Z,95004.00
2023-07-03T08:31:29.437Z,95006.00
2023-07-03T08:32:29.475Z,95006.00
2023-07-03T08:33:29.514Z,95004.00
2023-07-03T08:34:29.332Z,95004.00
2023-07-03T08:37:28.246Z,95002.00
2023-07-03T08:38:29.214Z,95000.00
2023-07-03T08:39:29.185Z,95002.00
2023-07-03T08:40:29.144Z,95002.00
2023-07-03T08:41:29.109Z,95000.00
2023-07-03T08:42:29.101Z,95000.00
2023-07-03T08:43:29.049Z,94998.00
2023-07-03T08:44:29.119Z,94998.00
2023-07-03T08:45:28.980Z,95000.00
2023-07-03T08:46:28.998Z,94994.00
2023-07-03T08:47:28.989Z,94994.00
2023-07-03T08:48:28.882Z,94992.00
2023-07-03T08:49:28.860Z,94988.00
2023-07-03T08:50:37.044Z,94988.00
2023-07-03T08:51:28.800Z,94990.00
2023-07-03T08:52:28.761Z,94986.00
2023-07-03T08:53:28.729Z,94986.00
2023-07-03T08:54:28.698Z,94984.00
2023-07-03T08:55:28.658Z,94986.00
2023-07-03T08:56:28.644Z,94988.00
2023-07-03T08:57:28.594Z,94984.00
2023-07-03T08:58:28.578Z,94986.00
2023-07-03T08:59:28.527Z,94982.00
2023-07-03T09:00:28.603Z,94986.00
2023-07-03T09:01:28.466Z,94984.00
2023-07-03T09:02:28.543Z,94982.00
2023-07-03T09:03:28.522Z,94986.00
2023-07-03T09:04:28.398Z,94984.00
2023-07-03T09:05:28.326Z,94986.00
2023-07-03T09:06:28.280Z,94986.00
2023-07-03T09:07:28.243Z,94988.00
2023-07-03T09:08:28.218Z,94990.00
2023-07-03T09:09:28.193Z,94988.00
2023-07-03T09:10:28.164Z,94988.00
2023-07-03T09:11:28.197Z,94988.00
2023-07-03T09:12:28.085Z,94986.00
2023-07-03T09:13:28.042Z,94988.00
2023-07-03T09:14:28.009Z,94992.00
2023-07-03T09:15:27.981Z,94992.00
2023-07-03T09:16:28.152Z,94988.00
2023-07-03T09:17:27.977Z,94990.00
2023-07-03T09:18:27.890Z,94990.00
2023-07-03T09:19:27.851Z,94988.00
2023-07-03T09:20:27.825Z,94990.00
2023-07-03T09:21:27.796Z,94986.00
2023-07-03T09:22:28.162Z,94986.00
2023-07-03T09:23:27.744Z,94988.00
2023-07-03T09:24:27.713Z,94988.00
2023-07-03T09:25:27.671Z,94988.00
2023-07-03T09:26:27.639Z,94992.00
2023-07-03T09:27:27.705Z,94988.00
2023-07-03T09:28:27.571Z,94992.00
2023-07-03T09:29:27.539Z,94992.00
2023-07-03T09:30:27.508Z,94992.00
2023-07-03T09:31:27.495Z,94994.00
2023-07-03T09:32:27.868Z,94994.00
2023-07-03T09:33:27.459Z,94992.00
2023-07-03T09:34:27.395Z,94990.00
2023-07-03T09:35:27.361Z,94992.00
2023-07-03T09:36:28.306Z,94992.00
2023-07-03T09:37:27.298Z,94992.00
2023-07-03T09:38:27.267Z,94992.00
2023-07-03T09:39:27.297Z,94992.00
2023-07-03T09:40:27.273Z,94988.00
2023-07-03T09:41:27.212Z,94986.00
2023-07-03T09:42:27.157Z,94988.00
2023-07-03T09:43:27.148Z,94990.00
2023-07-03T09:44:27.109Z,94988.00
2023-07-03T09:45:27.086Z,94988.00
2023-07-03T09:46:27.065Z,94990.00
2023-07-03T09:47:27.880Z,94988.00
2023-07-03T09:48:27.134Z,94990.00
2023-07-03T09:49:26.970Z,94988.00
2023-07-03T09:50:26.948Z,94990.00
2023-07-03T09:51:26.919Z,94988.00
2023-07-03T09:52:27.352Z,94988.00
2023-07-03T09:53:26.854Z,94986.00
2023-07-03T09:54:26.843Z,94986.00
2023-07-03T09:55:26.813Z,94984.00
2023-07-03T09:56:26.799Z,94984.00
2023-07-03T09:57:26.979Z,94984.00
2023-07-03T09:58:26.736Z,94984.00
2023-07-03T09:59:26.687Z,94984.00
2023-07-03T10:00:26.696Z,94984.00
2023-07-03T10:07:25.528Z,94976.00
2023-07-03T10:08:30.288Z,94976.00
2023-07-03T10:11:25.337Z,94974.00
2023-07-03T10:12:26.424Z,94974.00
2023-07-03T10:13:26.273Z,94976.00
2023-07-03T10:14:26.243Z,94974.00
2023-07-03T10:15:26.227Z,94974.00
2023-07-03T10:16:26.203Z,94968.00
2023-07-03T10:17:26.304Z,94970.00
2023-07-03T10:18:26.133Z,94970.00
2023-07-03T10:19:26.109Z,94970.00
2023-07-03T10:20:28.356Z,94968.00
2023-07-03T10:21:26.063Z,94970.00
2023-07-03T10:22:26.036Z,94966.00
2023-07-03T10:23:25.978Z,94968.00
2023-07-03T10:24:25.948Z,94964.00
2023-07-03T10:25:25.915Z,94964.00
2023-07-03T10:26:26.163Z,94964.00
2023-07-03T10:27:25.962Z,94962.00
2023-07-03T10:28:25.810Z,94960.00
2023-07-03T10:29:25.781Z,94962.00
2023-07-03T10:30:25.857Z,94960.00
2023-07-03T10:31:25.759Z,94959.00
2023-07-03T10:32:25.762Z,94960.00
2023-07-03T10:33:25.682Z,94960.00
2023-07-03T10:34:25.668Z,94960.00
2023-07-03T10:35:25.657Z,94960.00
2023-07-03T10:36:26.689Z,94960.00
2023-07-03T10:37:25.567Z,94959.00
2023-07-03T10:38:25.537Z,94957.00
2023-07-03T10:39:25.512Z,94957.00
2023-07-03T10:40:25.481Z,94957.00
2023-07-03T10:41:25.465Z,94951.00
2023-07-03T10:42:25.436Z,94953.00
2023-07-03T10:43:25.413Z,94949.00
2023-07-03T10:44:25.373Z,94945.00
2023-07-03T10:45:25.346Z,94953.00
2023-07-03T10:46:26.076Z,94951.00
2023-07-03T10:47:25.334Z,94949.00
2023-07-03T10:48:25.257Z,94949.00
2023-07-03T10:49:25.253Z,94951.00
2023-07-03T10:50:25.185Z,94949.00
2023-07-03T10:51:25.155Z,94947.00
2023-07-03T10:52:26.088Z,94949.00
2023-07-03T10:53:25.103Z,94953.00
2023-07-03T10:54:25.073Z,94953.00
2023-07-03T10:55:25.046Z,94955.00
2023-07-03T10:56:25.029Z,94951.00
2023-07-03T10:57:25.000Z,94953.00
2023-07-03T10:58:24.975Z,94949.00
2023-07-03T10:59:24.949Z,94947.00
2023-07-03T11:00:24.928Z,94945.00
2023-07-03T11:01:24.915Z,94947.00
2023-07-03T11:02:24.906Z,94947.00
2023-07-03T11:03:24.870Z,94947.00
2023-07-03T11:04:26.038Z,94945.00
2023-07-03T11:05:24.787Z,94947.00
2023-07-03T11:06:24.780Z,94949.00
2023-07-03T11:07:24.744Z,94949.00
2023-07-03T11:08:24.829Z,94949.00
2023-07-03T11:09:24.690Z,94951.00
2023-07-03T11:10:25.195Z,94953.00
2023-07-03T11:11:24.650Z,94953.00
2023-07-03T11:12:24.628Z,94953.00
2023-07-03T11:13:24.619Z,94953.00
2023-07-03T11:14:24.578Z,94949.00
2023-07-03T11:15:24.554Z,94951.00
2023-07-03T11:16:26.057Z,94945.00
2023-07-03T11:17:24.820Z,94945.00
2023-07-03T11:20:23.782Z,94949.00
2023-07-03T11:23:23.641Z,94943.00
2023-07-03T11:24:24.673Z,94939.00
2023-07-03T11:25:24.547Z,94945.00
2023-07-03T11:28:25.146Z,94941.00
2023-07-03T11:29:24.442Z,94937.00
2023-07-03T11:30:24.411Z,94937.00
2023-07-03T11:31:24.421Z,94937.00
2023-07-03T11:32:24.466Z,94937.00
2023-07-03T11:33:24.339Z,94935.00
2023-07-03T11:36:28.837Z,94937.00
2023-07-03T11:37:24.718Z,94937.00
2023-07-03T11:40:24.349Z,94937.00
2023-07-03T11:44:26.878Z,94935.00
2023-07-03T11:45:23.990Z,94933.00
2023-07-03T11:46:23.987Z,94929.00
2023-07-03T11:47:24.150Z,94935.00
2023-07-03T11:48:23.887Z,94933.00
2023-07-03T11:49:23.857Z,94929.00
2023-07-03T11:50:23.836Z,94931.00
2023-07-03T11:51:23.813Z,94929.00
2023-07-03T11:52:23.813Z,94927.00
2023-07-03T11:53:23.758Z,94931.00
2023-07-03T11:54:23.737Z,94927.00
2023-07-03T11:55:23.706Z,94929.00
2023-07-03T11:56:23.700Z,94923.00
2023-07-03T11:57:23.645Z,94929.00
2023-07-03T11:58:23.622Z,94925.00
2023-07-03T11:59:23.589Z,94929.00
2023-07-03T12:00:23.583Z,94929.00
2023-07-03T12:01:23.539Z,94927.00
2023-07-03T12:02:23.518Z,94929.00
2023-07-03T12:03:23.510Z,94925.00
2023-07-03T12:04:23.461Z,94921.00
2023-07-03T12:05:23.427Z,94925.00
2023-07-03T12:06:23.420Z,94925.00
2023-07-03T12:07:23.426Z,94919.00
2023-07-03T12:08:23.419Z,94919.00